createdAt,value
2019-03-26T00:01:07.376Z,24.83
2019-03-26T00:03:38.970Z,17.47
2019-03-26T00:06:10.275Z,22.50
2019-03-26T00:08:41.617Z,19.20
2019-03-26T00:11:13.062Z,26.67
2019-03-26T00:13:44.402Z,23.00
2019-03-26T00:16:15.804Z,20.07
2019-03-26T00:18:47.317Z,26.97
2019-03-26T00:21:18.618Z,25.17
2019-03-26T00:23:49.902Z,13.70
2019-03-26T00:26:21.201Z,18.53
2019-03-26T00:28:52.409Z,16.57
2019-03-26T00:31:24.978Z,22.40
2019-03-26T00:33:56.316Z,17.00
2019-03-26T00:36:27.657Z,16.07
2019-03-26T00:38:59.045Z,16.17
2019-03-26T00:41:30.411Z,13.80
2019-03-26T00:44:01.964Z,18.73
2019-03-26T00:46:33.333Z,14.87
2019-03-26T00:49:04.677Z,14.07
2019-03-26T00:51:35.981Z,11.07
2019-03-26T00:54:07.337Z,18.97
2019-03-26T00:56:38.674Z,15.20
2019-03-26T00:59:10.107Z,15.10
2019-03-26T01:01:41.663Z,13.23
2019-03-26T01:04:12.979Z,15.97
2019-03-26T01:06:44.415Z,15.93
2019-03-26T01:09:15.791Z,8.23
2019-03-26T01:11:47.044Z,25.50
2019-03-26T01:14:18.367Z,16.00
2019-03-26T01:16:50.937Z,19.90
2019-03-26T01:19:22.285Z,15.80
2019-03-26T01:21:53.643Z,17.00
2019-03-26T01:24:24.987Z,18.60
2019-03-26T01:26:56.157Z,23.90
2019-03-26T01:29:27.721Z,14.60
2019-03-26T01:31:59.091Z,15.77
2019-03-26T01:34:30.592Z,19.73
2019-03-26T01:37:01.914Z,19.97
2019-03-26T01:39:33.276Z,16.53
2019-03-26T01:42:04.635Z,16.07
2019-03-26T01:44:35.961Z,18.67
2019-03-26T01:47:07.283Z,20.97
2019-03-26T01:49:39.669Z,19.23
2019-03-26T02:11:31.217Z,16.60
2019-03-26T02:14:02.707Z,18.47
2019-03-26T02:16:34.016Z,12.40
2019-03-26T02:19:05.369Z,15.37
2019-03-26T02:21:36.734Z,20.13
2019-03-26T02:24:08.120Z,24.67
2019-03-26T02:26:39.474Z,20.40
2019-03-26T02:29:10.843Z,19.33
2019-03-26T02:31:42.334Z,17.63
2019-03-26T02:34:14.429Z,12.10
2019-03-26T02:36:45.775Z,18.47
2019-03-26T02:39:17.123Z,12.93
2019-03-26T02:41:48.459Z,17.57
2019-03-26T02:44:19.766Z,15.90
2019-03-26T02:46:51.150Z,17.43
2019-03-26T02:49:22.502Z,19.03
2019-03-26T02:51:54.103Z,11.43
2019-03-26T02:54:25.509Z,14.53
2019-03-26T02:56:56.856Z,19.03
2019-03-26T02:59:28.155Z,17.47
2019-03-26T03:01:59.506Z,14.17
2019-03-26T03:04:30.856Z,14.50
2019-03-26T03:07:02.103Z,15.07
2019-03-26T03:09:33.466Z,12.97
2019-03-26T03:12:04.781Z,15.77
2019-03-26T03:14:36.079Z,13.97
2019-03-26T03:17:07.533Z,16.77
2019-03-26T03:19:38.749Z,14.10
2019-03-26T03:22:10.083Z,17.10
2019-03-26T03:24:41.582Z,14.03
2019-03-26T03:27:12.835Z,14.73
2019-03-26T03:29:44.291Z,14.90
2019-03-26T03:32:15.680Z,14.27
2019-03-26T03:34:47.367Z,21.57
2019-03-26T03:37:18.776Z,16.60
2019-03-26T03:39:50.174Z,16.67
2019-03-26T03:42:21.476Z,14.40
2019-03-26T03:44:53.923Z,17.80
2019-03-26T03:47:29.008Z,23.23
2019-03-26T03:50:01.848Z,17.23
2019-03-26T03:52:40.536Z,21.63
2019-03-26T03:55:12.731Z,14.23
2019-03-26T03:57:45.548Z,15.93
2019-03-26T04:00:34.153Z,16.40
2019-03-26T04:03:06.495Z,14.07
2019-03-26T04:05:38.642Z,15.67
2019-03-26T04:08:10.151Z,12.73
2019-03-26T04:10:41.748Z,17.80
2019-03-26T04:13:13.739Z,15.03
2019-03-26T04:15:45.145Z,16.30
2019-03-26T04:18:16.471Z,16.03
2019-03-26T04:20:47.837Z,18.60
2019-03-26T04:23:19.138Z,17.80
2019-03-26T04:25:50.426Z,20.87
2019-03-26T04:28:21.741Z,17.13
2019-03-26T04:30:53.063Z,21.40
2019-03-26T04:33:24.439Z,12.00
2019-03-26T04:35:55.864Z,13.93
2019-03-26T04:38:27.185Z,17.90
2019-03-26T04:40:58.604Z,15.37
2019-03-26T04:43:30.918Z,15.80
2019-03-26T04:46:02.296Z,18.87
2019-03-26T04:48:33.750Z,17.23
2019-03-26T04:51:05.055Z,16.37
2019-03-26T04:53:36.457Z,13.57
2019-03-26T04:56:07.969Z,16.00
2019-03-26T04:58:39.425Z,17.60
2019-03-26T05:01:11.311Z,10.43
2019-03-26T05:03:42.633Z,24.80
2019-03-26T05:06:13.964Z,14.13
2019-03-26T05:08:45.164Z,22.23
2019-03-26T05:11:16.538Z,19.53
2019-03-26T05:13:47.940Z,17.07
2019-03-26T05:16:19.388Z,16.60
2019-03-26T05:18:50.649Z,28.00
2019-03-26T05:21:21.940Z,18.33
2019-03-26T05:23:53.339Z,19.33
2019-03-26T05:26:24.768Z,25.73
2019-03-26T05:28:56.153Z,18.30
2019-03-26T05:31:27.464Z,23.20
2019-03-26T05:34:01.893Z,19.97
2019-03-26T05:36:33.234Z,21.43
2019-03-26T05:39:05.614Z,19.70
2019-03-26T05:41:37.014Z,18.10
2019-03-26T05:44:08.466Z,16.10
2019-03-26T05:46:40.232Z,18.50
2019-03-26T05:49:11.908Z,21.37
2019-03-26T05:51:50.610Z,17.40
2019-03-26T05:54:21.967Z,21.60
2019-03-26T05:56:53.266Z,17.07
2019-03-26T05:59:24.585Z,25.97
2019-03-26T06:01:55.975Z,15.80
2019-03-26T06:04:27.353Z,20.17
2019-03-26T06:07:10.683Z,15.43
2019-03-26T06:09:36.828Z,19.77
2019-03-26T06:12:08.285Z,17.80
2019-03-26T06:14:39.593Z,17.10
2019-03-26T06:17:10.985Z,20.73
2019-03-26T06:19:45.083Z,19.93
2019-03-26T06:22:18.081Z,22.97
2019-03-26T06:24:49.378Z,18.70
2019-03-26T06:27:20.768Z,22.63
2019-03-26T06:29:52.138Z,32.97
2019-03-26T06:32:23.542Z,19.70
2019-03-26T06:34:54.895Z,21.77
2019-03-26T06:37:27.528Z,27.83
2019-03-26T06:39:58.943Z,17.80
2019-03-26T06:42:31.872Z,19.77
2019-03-26T06:45:05.757Z,22.90
2019-03-26T06:47:37.296Z,17.07
2019-03-26T06:50:10.025Z,20.77
2019-03-26T06:52:41.438Z,19.63
2019-03-26T06:55:12.951Z,20.57
2019-03-26T06:57:44.480Z,21.90
2019-03-26T07:00:17.775Z,22.23
2019-03-26T07:02:49.150Z,17.27
2019-03-26T07:05:21.669Z,18.40
2019-03-26T07:07:53.082Z,19.83
2019-03-26T07:10:28.695Z,21.30
2019-03-26T07:13:00.312Z,22.03
2019-03-26T07:15:31.760Z,20.17
2019-03-26T07:18:03.079Z,17.67
2019-03-26T07:20:34.396Z,18.43
2019-03-26T07:23:08.356Z,19.47
2019-03-26T07:25:41.120Z,24.23
2019-03-26T07:28:15.311Z,19.60
2019-03-26T07:30:47.658Z,25.40
2019-03-26T07:33:20.446Z,16.50
2019-03-26T07:35:51.851Z,17.67
2019-03-26T07:38:23.355Z,18.03
2019-03-26T07:40:54.732Z,19.10
2019-03-26T07:43:26.055Z,18.53
2019-03-26T07:45:57.527Z,22.77
2019-03-26T07:48:28.823Z,20.93
2019-03-26T07:51:00.277Z,23.93
2019-03-26T07:53:33.365Z,25.27
2019-03-26T07:56:04.678Z,28.43
2019-03-26T07:58:35.967Z,21.43
2019-03-26T08:01:07.468Z,19.03
2019-03-26T08:03:38.907Z,19.53
2019-03-26T08:06:10.255Z,19.63
2019-03-26T08:08:41.896Z,21.27
2019-03-26T08:11:15.327Z,17.43
2019-03-26T08:13:46.899Z,23.70
2019-03-26T08:16:18.294Z,16.80
2019-03-26T08:18:49.733Z,22.50
2019-03-26T08:21:21.126Z,17.30
2019-03-26T08:23:54.098Z,22.00
2019-03-26T08:26:25.413Z,24.80
2019-03-26T08:28:56.717Z,19.93
2019-03-26T08:31:29.051Z,20.20
2019-03-26T08:34:01.788Z,19.10
2019-03-26T08:36:33.087Z,17.87
2019-03-26T08:39:07.778Z,25.17
2019-03-26T08:41:39.191Z,24.40
2019-03-26T08:44:10.511Z,19.63
2019-03-26T08:46:42.150Z,16.20
2019-03-26T08:49:14.279Z,25.17
2019-03-26T08:51:45.858Z,22.17
2019-03-26T08:54:17.120Z,22.40
2019-03-26T08:56:48.522Z,14.17
2019-03-26T08:59:19.938Z,24.17
2019-03-26T09:01:52.318Z,13.13
2019-03-26T09:04:26.761Z,15.70
2019-03-26T09:06:56.702Z,15.97
2019-03-26T09:09:29.597Z,18.13
2019-03-26T09:12:01.026Z,12.23
2019-03-26T09:14:33.985Z,17.10
2019-03-26T09:17:05.597Z,22.43
2019-03-26T09:19:36.923Z,17.43
2019-03-26T09:22:09.072Z,21.20
2019-03-26T09:24:40.626Z,18.77
2019-03-26T09:27:12.092Z,20.40
2019-03-26T09:29:43.384Z,18.47
2019-03-26T09:32:14.749Z,16.60
2019-03-26T09:34:46.097Z,20.27
2019-03-26T09:37:17.684Z,27.30
2019-03-26T09:39:49.049Z,14.37
2019-03-26T09:42:21.398Z,16.93
2019-03-26T09:44:52.745Z,21.13
2019-03-26T09:47:24.218Z,16.63
2019-03-26T09:49:55.791Z,17.70
2019-03-26T09:52:27.334Z,18.97
2019-03-26T09:54:58.697Z,13.53
2019-03-26T09:57:30.055Z,18.07
2019-03-26T10:00:04.931Z,13.50
2019-03-26T10:02:36.398Z,27.50
2019-03-26T10:05:09.653Z,19.37
2019-03-26T10:07:41.016Z,13.73
2019-03-26T10:10:13.469Z,20.03
2019-03-26T10:12:56.321Z,14.90
2019-03-26T10:15:27.773Z,29.40
2019-03-26T10:17:59.184Z,15.17
2019-03-26T10:20:30.904Z,16.83
2019-03-26T10:23:02.254Z,10.90
2019-03-26T10:25:33.635Z,16.03
2019-03-26T10:28:05.104Z,16.67
2019-03-26T10:30:39.088Z,16.63
2019-03-26T10:33:11.279Z,19.53
2019-03-26T10:35:42.671Z,13.67
2019-03-26T10:38:13.968Z,12.13
2019-03-26T10:40:45.571Z,17.10
2019-03-26T10:43:16.990Z,16.03
2019-03-26T10:45:48.429Z,13.80
2019-03-26T10:48:21.955Z,16.53
2019-03-26T10:50:55.450Z,21.20
2019-03-26T10:53:27.008Z,13.03
2019-03-26T10:55:58.608Z,17.80
2019-03-26T10:58:31.029Z,17.60
2019-03-26T11:01:02.681Z,23.80
2019-03-26T11:03:34.170Z,14.57
2019-03-26T11:06:06.605Z,15.03
2019-03-26T11:08:38.102Z,20.93
2019-03-26T11:11:09.854Z,19.13
2019-03-26T11:13:44.863Z,22.50
2019-03-26T11:16:17.432Z,13.50
2019-03-26T11:18:48.822Z,20.27
2019-03-26T11:21:20.150Z,15.73
2019-03-26T11:23:51.673Z,14.90
2019-03-26T11:26:23.042Z,18.07
2019-03-26T11:28:54.618Z,16.67
2019-03-26T11:31:26.135Z,9.83
2019-03-26T11:34:12.662Z,16.77
2019-03-26T11:36:44.145Z,14.70
2019-03-26T11:39:15.633Z,12.70
2019-03-26T11:41:47.016Z,10.40
2019-03-26T11:44:18.412Z,13.30
2019-03-26T11:46:49.674Z,14.20
2019-03-26T11:49:21.124Z,11.27
2019-03-26T11:51:55.246Z,8.50
2019-03-26T11:54:29.974Z,20.50
2019-03-26T11:57:02.975Z,18.83
2019-03-26T11:59:37.047Z,12.70
2019-03-26T12:02:10.168Z,18.90
2019-03-26T12:04:42.575Z,19.13
2019-03-26T12:07:14.475Z,15.70
2019-03-26T12:09:46.894Z,9.43
2019-03-26T12:12:18.535Z,17.80
2019-03-26T12:14:52.251Z,15.00
2019-03-26T12:17:25.234Z,13.70
2019-03-26T12:19:57.444Z,16.83
2019-03-26T12:22:31.537Z,12.80
2019-03-26T12:25:03.099Z,9.70
2019-03-26T12:27:36.562Z,18.83
2019-03-26T12:30:15.480Z,12.03
2019-03-26T12:32:46.883Z,17.83
2019-03-26T12:35:29.303Z,14.47
2019-03-26T12:38:00.746Z,13.73
2019-03-26T12:40:33.422Z,18.97
2019-03-26T12:43:06.476Z,16.17
2019-03-26T12:45:37.853Z,13.40
2019-03-26T12:48:09.270Z,13.73
2019-03-26T12:50:43.748Z,16.50
2019-03-26T12:53:15.127Z,14.23
2019-03-26T12:55:51.396Z,12.43
2019-03-26T12:58:31.708Z,19.13
2019-03-26T13:00:57.125Z,14.10
2019-03-26T13:03:28.618Z,15.33
2019-03-26T13:05:59.972Z,14.50
2019-03-26T13:08:31.559Z,13.97
2019-03-26T13:11:03.503Z,11.93
2019-03-26T13:13:34.870Z,13.23
2019-03-26T13:16:06.355Z,12.70
2019-03-26T13:18:37.775Z,13.40
2019-03-26T13:21:09.096Z,19.30
2019-03-26T13:23:40.562Z,12.93
2019-03-26T13:26:11.826Z,17.23
2019-03-26T13:28:43.159Z,12.37
2019-03-26T13:31:14.568Z,12.73
2019-03-26T13:33:45.914Z,15.97
2019-03-26T13:36:17.293Z,9.90
2019-03-26T13:38:48.786Z,15.33
2019-03-26T13:41:21.741Z,20.67
2019-03-26T13:43:54.215Z,16.80
2019-03-26T13:46:25.646Z,19.50
2019-03-26T13:48:56.918Z,13.70
2019-03-26T13:51:28.256Z,11.27
2019-03-26T13:53:59.578Z,21.03
2019-03-26T13:56:31.040Z,11.63
2019-03-26T13:59:02.354Z,15.03
2019-03-26T14:01:35.325Z,14.93
2019-03-26T14:04:06.785Z,13.67
2019-03-26T14:06:38.188Z,15.80
2019-03-26T14:09:11.151Z,16.47
2019-03-26T14:11:44.046Z,13.23
2019-03-26T14:14:15.477Z,22.30
2019-03-26T14:16:46.838Z,15.57
2019-03-26T14:19:18.210Z,17.40
2019-03-26T14:21:54.051Z,16.87
2019-03-26T14:24:26.410Z,16.17
2019-03-26T14:26:57.782Z,18.10
2019-03-26T14:29:29.121Z,20.77
2019-03-26T14:32:00.459Z,12.77
2019-03-26T14:34:35.259Z,24.53
2019-03-26T14:37:06.698Z,14.00
2019-03-26T14:39:38.114Z,16.50
2019-03-26T14:42:11.561Z,11.70
2019-03-26T14:44:42.973Z,19.70
2019-03-26T14:47:14.564Z,15.50
2019-03-26T14:49:46.566Z,14.03
2019-03-26T14:52:17.980Z,22.67
2019-03-26T14:54:49.449Z,18.53
2019-03-26T14:57:20.769Z,14.30
2019-03-26T14:59:53.859Z,22.93
2019-03-26T15:02:26.295Z,24.90
2019-03-26T15:04:58.258Z,16.77
2019-03-26T15:07:29.606Z,19.90
2019-03-26T15:10:04.699Z,19.07
2019-03-26T15:12:36.074Z,15.90
2019-03-26T15:15:08.772Z,17.83
2019-03-26T15:17:41.353Z,17.73
2019-03-26T15:20:16.174Z,17.73
2019-03-26T15:22:48.611Z,20.97
2019-03-26T15:25:25.116Z,23.63
2019-03-26T15:28:03.100Z,18.37
2019-03-26T15:30:37.140Z,20.17
2019-03-26T15:33:14.229Z,28.13
2019-03-26T15:35:46.429Z,24.43
2019-03-26T15:38:17.873Z,19.07
2019-03-26T15:40:49.193Z,26.53
2019-03-26T15:43:22.734Z,27.00
2019-03-26T15:45:58.835Z,23.00
2019-03-26T15:48:41.015Z,31.00
2019-03-26T15:51:13.123Z,30.10
2019-03-26T15:53:46.243Z,24.47
2019-03-26T15:56:22.091Z,33.97
2019-03-26T15:58:54.985Z,32.80
2019-03-26T16:01:26.596Z,31.63
2019-03-26T16:04:08.349Z,23.53
2019-03-26T16:06:42.491Z,29.63
2019-03-26T16:09:16.489Z,26.93
2019-03-26T16:11:48.975Z,26.27
2019-03-26T16:14:31.326Z,20.93
2019-03-26T16:17:09.011Z,22.00
2019-03-26T16:19:40.387Z,22.13
2019-03-26T16:22:25.344Z,22.97
2019-03-26T16:25:01.590Z,27.73
2019-03-26T16:27:33.082Z,28.70
2019-03-26T16:30:04.617Z,21.40
2019-03-26T16:32:35.961Z,22.47
2019-03-26T16:35:07.675Z,28.73
2019-03-26T16:37:40.482Z,21.80
2019-03-26T16:40:11.928Z,19.00
2019-03-26T16:42:43.891Z,22.00
2019-03-26T16:45:15.232Z,21.07
2019-03-26T16:47:46.674Z,19.43
2019-03-26T16:50:18.073Z,27.00
2019-03-26T16:52:49.413Z,33.20
2019-03-26T16:55:20.928Z,23.07
2019-03-26T16:57:54.062Z,22.77
2019-03-26T17:00:36.155Z,26.53
2019-03-26T17:03:07.829Z,24.83
2019-03-26T17:05:40.292Z,25.33
2019-03-26T17:08:12.536Z,21.27
2019-03-26T17:10:48.578Z,18.93
2019-03-26T17:13:21.201Z,23.93
2019-03-26T17:15:52.557Z,29.43
2019-03-26T17:18:23.944Z,21.80
2019-03-26T17:20:56.756Z,19.17
2019-03-26T17:23:28.908Z,31.63
2019-03-26T17:26:00.221Z,24.63
2019-03-26T17:28:31.581Z,28.47
2019-03-26T17:31:02.886Z,27.17
2019-03-26T17:33:34.182Z,26.50
2019-03-26T17:36:05.543Z,28.53
2019-03-26T17:38:36.872Z,26.93
2019-03-26T17:41:10.750Z,33.63
2019-03-26T17:43:44.998Z,34.50
2019-03-26T17:46:17.112Z,29.53
2019-03-26T17:48:48.553Z,29.37
2019-03-26T17:51:19.929Z,29.80
2019-03-26T17:53:52.289Z,23.03
2019-03-26T17:56:23.526Z,30.10
2019-03-26T17:58:54.922Z,31.43
2019-03-26T18:01:26.475Z,25.93
2019-03-26T18:03:57.808Z,21.83
2019-03-26T18:06:29.078Z,33.40
2019-03-26T18:09:00.522Z,23.97
2019-03-26T18:11:33.498Z,20.50
2019-03-26T18:14:04.810Z,22.60
2019-03-26T18:16:36.162Z,32.23
2019-03-26T18:19:07.859Z,22.23
2019-03-26T18:21:50.905Z,26.40
2019-03-26T18:24:13.423Z,23.70
2019-03-26T18:33:29.789Z,35.23
2019-03-26T18:36:02.925Z,26.47
2019-03-26T18:38:34.317Z,30.87
2019-03-26T18:41:05.829Z,32.77
2019-03-26T18:43:42.306Z,27.90
2019-03-26T18:46:15.393Z,27.73
2019-03-26T18:52:40.959Z,22.83
2019-03-26T18:55:45.601Z,26.77
2019-03-26T18:58:28.126Z,25.13
2019-03-26T19:00:59.527Z,30.83
2019-03-26T19:03:30.893Z,22.23
2019-03-26T19:06:02.833Z,34.03
2019-03-26T19:08:35.276Z,34.40
2019-03-26T19:11:06.736Z,29.17
2019-03-26T19:13:38.190Z,27.60
2019-03-26T19:16:09.718Z,34.23
2019-03-26T19:18:41.594Z,37.53
2019-03-26T19:21:13.033Z,42.90
2019-03-26T19:23:44.447Z,26.20
2019-03-26T19:26:16.624Z,29.43
2019-03-26T19:28:50.049Z,25.87
2019-03-26T19:31:22.997Z,33.87
2019-03-26T19:33:56.110Z,29.17
2019-03-26T19:36:27.724Z,33.60
2019-03-26T19:38:59.284Z,33.40
2019-03-26T19:41:30.881Z,29.53
2019-03-26T19:44:02.338Z,28.10
2019-03-26T19:46:33.905Z,31.83
2019-03-26T19:49:05.365Z,31.80
2019-03-26T20:01:05.007Z,31.07
2019-03-26T20:03:18.317Z,40.13
2019-03-26T20:05:51.358Z,35.87
2019-03-26T20:08:27.404Z,35.50
2019-03-26T20:13:55.233Z,30.10
2019-03-26T20:16:27.486Z,41.03
2019-03-26T20:19:02.264Z,38.20
2019-03-26T20:21:39.172Z,34.57
2019-03-26T20:24:13.250Z,34.47
2019-03-26T20:26:54.905Z,33.30
2019-03-26T20:29:28.336Z,29.17
2019-03-26T20:32:02.908Z,37.10
2019-03-26T20:34:39.018Z,36.63
2019-03-26T20:37:13.779Z,33.37
2019-03-26T20:39:45.542Z,32.83
2019-03-26T20:42:16.960Z,38.60
2019-03-26T20:44:48.286Z,25.50
2019-03-26T20:47:19.659Z,30.63
2019-03-26T20:49:50.998Z,41.40
2019-03-26T20:52:22.510Z,37.73
2019-03-26T20:54:53.812Z,34.33
2019-03-26T20:57:25.465Z,39.40
2019-03-26T20:59:56.921Z,40.27
2019-03-26T21:02:28.409Z,34.33
2019-03-26T21:04:59.950Z,44.70
2019-03-26T21:07:31.318Z,31.93
2019-03-26T21:10:03.609Z,35.83
2019-03-26T21:12:39.152Z,32.20
2019-03-26T21:15:11.211Z,34.50
2019-03-26T21:17:44.552Z,37.77
2019-03-26T21:20:16.014Z,38.10
2019-03-26T21:22:47.417Z,30.27
2019-03-26T21:25:18.837Z,28.80
2019-03-26T21:27:50.262Z,32.23
2019-03-26T21:30:21.653Z,31.83
2019-03-26T21:32:52.986Z,37.40
2019-03-26T21:35:24.823Z,42.93
2019-03-26T21:37:56.336Z,25.50
2019-03-26T21:40:27.703Z,26.03
2019-03-26T21:43:00.436Z,33.87
2019-03-26T21:45:37.190Z,32.73
2019-03-26T21:48:09.129Z,31.37
2019-03-26T21:50:43.551Z,43.53
2019-03-26T21:53:14.917Z,32.90
2019-03-26T21:55:46.316Z,32.43
2019-03-26T21:58:17.657Z,31.33
2019-03-26T22:00:50.750Z,39.07
2019-03-26T22:03:22.207Z,36.00
2019-03-26T22:05:54.402Z,52.03
2019-03-26T22:08:25.776Z,39.63
2019-03-26T22:10:57.088Z,27.40
2019-03-26T22:13:28.523Z,28.97
2019-03-26T22:16:00.825Z,34.33
2019-03-26T22:18:32.400Z,34.77
2019-03-26T22:21:03.745Z,30.90
2019-03-26T22:23:35.101Z,30.37
2019-03-26T22:26:07.395Z,33.80
2019-03-26T22:28:38.900Z,33.87
2019-03-26T22:31:10.256Z,34.43
2019-03-26T22:33:42.690Z,37.43
2019-03-26T22:36:14.242Z,35.37
2019-03-26T22:38:45.432Z,27.57
2019-03-26T22:41:16.887Z,28.17
2019-03-26T22:43:49.895Z,29.30
2019-03-26T22:46:21.210Z,40.17
2019-03-26T22:48:52.581Z,35.20
2019-03-26T22:51:23.953Z,29.97
2019-03-26T22:53:55.332Z,32.20
2019-03-26T22:56:26.758Z,27.77
2019-03-26T22:58:58.109Z,31.80
2019-03-26T23:01:29.539Z,27.10
2019-03-26T23:04:00.991Z,33.57
2019-03-26T23:06:32.540Z,24.83
2019-03-26T23:09:04.613Z,36.83
2019-03-26T23:11:37.686Z,26.00
2019-03-26T23:14:09.126Z,31.73
2019-03-26T23:16:43.362Z,31.07
2019-03-26T23:19:14.713Z,26.60
2019-03-26T23:21:46.325Z,38.03
2019-03-26T23:24:19.354Z,31.70
2019-03-26T23:26:51.813Z,30.03
2019-03-26T23:29:23.269Z,26.13
2019-03-26T23:31:54.624Z,28.63
2019-03-26T23:34:25.930Z,31.27
2019-03-26T23:36:57.427Z,25.73
2019-03-26T23:39:30.344Z,28.90
2019-03-26T23:42:01.747Z,42.97
2019-03-26T23:44:33.186Z,26.57
2019-03-26T23:47:04.790Z,37.57
2019-03-26T23:49:36.061Z,30.70
2019-03-26T23:52:09.094Z,33.23
2019-03-26T23:54:43.925Z,30.23
2019-03-26T23:57:15.249Z,38.60
2019-03-26T23:59:46.747Z,29.90
